<?xml version="1.0" encoding="UTF-8" standalone="no" ?>
<gpx xmlns="http://www.topografix.com/GPX/1/1" xmlns:xsi="http://www.w3.org/2001/XMLSchema-instance" xsi:schemaLocation="http://www.topografix.com/GPX/1/1 http://www.topografix.com/GPX/1/1/gpx.xsd" version="1.1" creator="VisuGPX - https://www.visugpx.com">
  <metadata>
    <name>Ventenac - Cabarde?s 2019 06 12</name>
    <desc><![CDATA[
]]></desc>
  </metadata>
  <trk>
    <name><![CDATA[Ventenac - Cabardès 2019 06 12]]></name>
    <trkseg>
      <trkpt lat="43.26598" lon="2.28219">
        <ele>166</ele>
        <time>2019-06-12T10:26:14.000Z</time>
      </trkpt>
      <trkpt lat="43.26596" lon="2.28181">
        <ele>192</ele>
        <time>2019-06-12T10:29:44.000Z</time>
      </trkpt>
      <trkpt lat="43.26602" lon="2.28144">
        <ele>196</ele>
        <time>2019-06-12T10:30:7.000Z</time>
      </trkpt>
      <trkpt lat="43.2662" lon="2.28115">
        <ele>201</ele>
        <time>2019-06-12T10:30:48.000Z</time>
      </trkpt>
      <trkpt lat="43.26647" lon="2.28113">
        <ele>201</ele>
        <time>2019-06-12T10:31:14.000Z</time>
      </trkpt>
      <trkpt lat="43.26672" lon="2.28097">
        <ele>201</ele>
        <time>2019-06-12T10:31:35.000Z</time>
      </trkpt>
      <trkpt lat="43.26696" lon="2.28079">
        <ele>200</ele>
        <time>2019-06-12T10:31:58.000Z</time>
      </trkpt>
      <trkpt lat="43.26721" lon="2.28066">
        <ele>200</ele>
        <time>2019-06-12T10:32:21.000Z</time>
      </trkpt>
      <trkpt lat="43.26748" lon="2.28056">
        <ele>200</ele>
        <time>2019-06-12T10:32:47.000Z</time>
      </trkpt>
      <trkpt lat="43.26775" lon="2.28055">
        <ele>200</ele>
        <time>2019-06-12T10:33:11.000Z</time>
      </trkpt>
      <trkpt lat="43.26802" lon="2.28062">
        <ele>200</ele>
        <time>2019-06-12T10:33:34.000Z</time>
      </trkpt>
      <trkpt lat="43.26825" lon="2.28081">
        <ele>200</ele>
        <time>2019-06-12T10:33:58.000Z</time>
      </trkpt>
      <trkpt lat="43.26849" lon="2.281">
        <ele>200</ele>
        <time>2019-06-12T10:34:20.000Z</time>
      </trkpt>
      <trkpt lat="43.26874" lon="2.28115">
        <ele>200</ele>
        <time>2019-06-12T10:34:45.000Z</time>
      </trkpt>
      <trkpt lat="43.26901" lon="2.28124">
        <ele>199</ele>
        <time>2019-06-12T10:35:10.000Z</time>
      </trkpt>
      <trkpt lat="43.26927" lon="2.28115">
        <ele>199</ele>
        <time>2019-06-12T10:35:33.000Z</time>
      </trkpt>
      <trkpt lat="43.26953" lon="2.28101">
        <ele>198</ele>
        <time>2019-06-12T10:35:58.000Z</time>
      </trkpt>
      <trkpt lat="43.26973" lon="2.28073">
        <ele>198</ele>
        <time>2019-06-12T10:36:18.000Z</time>
      </trkpt>
      <trkpt lat="43.26991" lon="2.28045">
        <ele>198</ele>
        <time>2019-06-12T10:36:42.000Z</time>
      </trkpt>
      <trkpt lat="43.27009" lon="2.28017">
        <ele>198</ele>
        <time>2019-06-12T10:37:4.000Z</time>
      </trkpt>
      <trkpt lat="43.27027" lon="2.27988">
        <ele>199</ele>
        <time>2019-06-12T10:37:25.000Z</time>
      </trkpt>
      <trkpt lat="43.27044" lon="2.27958">
        <ele>199</ele>
        <time>2019-06-12T10:37:47.000Z</time>
      </trkpt>
      <trkpt lat="43.27061" lon="2.27928">
        <ele>199</ele>
        <time>2019-06-12T10:38:12.000Z</time>
      </trkpt>
      <trkpt lat="43.27085" lon="2.27911">
        <ele>199</ele>
        <time>2019-06-12T10:39:10.000Z</time>
      </trkpt>
      <trkpt lat="43.27111" lon="2.27895">
        <ele>199</ele>
        <time>2019-06-12T10:39:34.000Z</time>
      </trkpt>
      <trkpt lat="43.27137" lon="2.27881">
        <ele>199</ele>
        <time>2019-06-12T10:39:57.000Z</time>
      </trkpt>
      <trkpt lat="43.27161" lon="2.27861">
        <ele>199</ele>
        <time>2019-06-12T10:40:17.000Z</time>
      </trkpt>
      <trkpt lat="43.27184" lon="2.27841">
        <ele>200</ele>
        <time>2019-06-12T10:40:39.000Z</time>
      </trkpt>
      <trkpt lat="43.27205" lon="2.27816">
        <ele>200</ele>
        <time>2019-06-12T10:41:1.000Z</time>
      </trkpt>
      <trkpt lat="43.27223" lon="2.27788">
        <ele>200</ele>
        <time>2019-06-12T10:41:24.000Z</time>
      </trkpt>
      <trkpt lat="43.27244" lon="2.27764">
        <ele>200</ele>
        <time>2019-06-12T10:41:45.000Z</time>
      </trkpt>
      <trkpt lat="43.27264" lon="2.27739">
        <ele>200</ele>
        <time>2019-06-12T10:42:7.000Z</time>
      </trkpt>
      <trkpt lat="43.27287" lon="2.2772">
        <ele>201</ele>
        <time>2019-06-12T10:42:27.000Z</time>
      </trkpt>
      <trkpt lat="43.27308" lon="2.27696">
        <ele>201</ele>
        <time>2019-06-12T10:42:50.000Z</time>
      </trkpt>
      <trkpt lat="43.27329" lon="2.27671">
        <ele>201</ele>
        <time>2019-06-12T10:43:12.000Z</time>
      </trkpt>
      <trkpt lat="43.27348" lon="2.27642">
        <ele>202</ele>
        <time>2019-06-12T10:43:44.000Z</time>
      </trkpt>
      <trkpt lat="43.27367" lon="2.27614">
        <ele>202</ele>
        <time>2019-06-12T10:44:6.000Z</time>
      </trkpt>
      <trkpt lat="43.27385" lon="2.27586">
        <ele>202</ele>
        <time>2019-06-12T10:44:26.000Z</time>
      </trkpt>
      <trkpt lat="43.27403" lon="2.27557">
        <ele>202</ele>
        <time>2019-06-12T10:44:47.000Z</time>
      </trkpt>
      <trkpt lat="43.27423" lon="2.2753">
        <ele>203</ele>
        <time>2019-06-12T10:45:8.000Z</time>
      </trkpt>
      <trkpt lat="43.27443" lon="2.27505">
        <ele>203</ele>
        <time>2019-06-12T10:45:29.000Z</time>
      </trkpt>
      <trkpt lat="43.27463" lon="2.27478">
        <ele>203</ele>
        <time>2019-06-12T10:45:50.000Z</time>
      </trkpt>
      <trkpt lat="43.27483" lon="2.27454">
        <ele>203</ele>
        <time>2019-06-12T10:46:10.000Z</time>
      </trkpt>
      <trkpt lat="43.27504" lon="2.27426">
        <ele>203</ele>
        <time>2019-06-12T10:46:31.000Z</time>
      </trkpt>
      <trkpt lat="43.27524" lon="2.27402">
        <ele>203</ele>
        <time>2019-06-12T10:46:52.000Z</time>
      </trkpt>
      <trkpt lat="43.27542" lon="2.27375">
        <ele>203</ele>
        <time>2019-06-12T10:47:15.000Z</time>
      </trkpt>
      <trkpt lat="43.27561" lon="2.27345">
        <ele>203</ele>
        <time>2019-06-12T10:47:38.000Z</time>
      </trkpt>
      <trkpt lat="43.27579" lon="2.27317">
        <ele>203</ele>
        <time>2019-06-12T10:48:5.000Z</time>
      </trkpt>
      <trkpt lat="43.27599" lon="2.2729">
        <ele>204</ele>
        <time>2019-06-12T10:48:27.000Z</time>
      </trkpt>
      <trkpt lat="43.27616" lon="2.27262">
        <ele>204</ele>
        <time>2019-06-12T10:48:55.000Z</time>
      </trkpt>
      <trkpt lat="43.27634" lon="2.27233">
        <ele>204</ele>
        <time>2019-06-12T10:49:17.000Z</time>
      </trkpt>
      <trkpt lat="43.27652" lon="2.27205">
        <ele>205</ele>
        <time>2019-06-12T10:49:43.000Z</time>
      </trkpt>
      <trkpt lat="43.27671" lon="2.27177">
        <ele>205</ele>
        <time>2019-06-12T10:50:9.000Z</time>
      </trkpt>
      <trkpt lat="43.27688" lon="2.27147">
        <ele>205</ele>
        <time>2019-06-12T10:50:33.000Z</time>
      </trkpt>
      <trkpt lat="43.27703" lon="2.27114">
        <ele>206</ele>
        <time>2019-06-12T10:50:56.000Z</time>
      </trkpt>
      <trkpt lat="43.27718" lon="2.27084">
        <ele>206</ele>
        <time>2019-06-12T10:51:21.000Z</time>
      </trkpt>
      <trkpt lat="43.27733" lon="2.27053">
        <ele>207</ele>
        <time>2019-06-12T10:51:46.000Z</time>
      </trkpt>
      <trkpt lat="43.27748" lon="2.27021">
        <ele>207</ele>
        <time>2019-06-12T10:52:11.000Z</time>
      </trkpt>
      <trkpt lat="43.27763" lon="2.2699">
        <ele>208</ele>
        <time>2019-06-12T10:52:36.000Z</time>
      </trkpt>
      <trkpt lat="43.27781" lon="2.2696">
        <ele>208</ele>
        <time>2019-06-12T10:53:0.000Z</time>
      </trkpt>
      <trkpt lat="43.27797" lon="2.2693">
        <ele>209</ele>
        <time>2019-06-12T10:53:30.000Z</time>
      </trkpt>
      <trkpt lat="43.27817" lon="2.26903">
        <ele>210</ele>
        <time>2019-06-12T10:53:56.000Z</time>
      </trkpt>
      <trkpt lat="43.2783" lon="2.2687">
        <ele>210</ele>
        <time>2019-06-12T10:54:17.000Z</time>
      </trkpt>
      <trkpt lat="43.27842" lon="2.26835">
        <ele>211</ele>
        <time>2019-06-12T10:54:39.000Z</time>
      </trkpt>
      <trkpt lat="43.27857" lon="2.26804">
        <ele>211</ele>
        <time>2019-06-12T10:55:2.000Z</time>
      </trkpt>
      <trkpt lat="43.27872" lon="2.26773">
        <ele>211</ele>
        <time>2019-06-12T10:55:26.000Z</time>
      </trkpt>
      <trkpt lat="43.27887" lon="2.26741">
        <ele>212</ele>
        <time>2019-06-12T10:55:52.000Z</time>
      </trkpt>
      <trkpt lat="43.27903" lon="2.26711">
        <ele>216</ele>
        <time>2019-06-12T11:00:50.000Z</time>
      </trkpt>
      <trkpt lat="43.27922" lon="2.26737">
        <ele>216</ele>
        <time>2019-06-12T11:01:31.000Z</time>
      </trkpt>
      <trkpt lat="43.27942" lon="2.26763">
        <ele>217</ele>
        <time>2019-06-12T11:01:59.000Z</time>
      </trkpt>
      <trkpt lat="43.27963" lon="2.26787">
        <ele>217</ele>
        <time>2019-06-12T11:02:23.000Z</time>
      </trkpt>
      <trkpt lat="43.27969" lon="2.26824">
        <ele>217</ele>
        <time>2019-06-12T11:02:46.000Z</time>
      </trkpt>
      <trkpt lat="43.27969" lon="2.26861">
        <ele>217</ele>
        <time>2019-06-12T11:03:8.000Z</time>
      </trkpt>
      <trkpt lat="43.27974" lon="2.26898">
        <ele>217</ele>
        <time>2019-06-12T11:03:30.000Z</time>
      </trkpt>
      <trkpt lat="43.27996" lon="2.26922">
        <ele>218</ele>
        <time>2019-06-12T11:03:57.000Z</time>
      </trkpt>
      <trkpt lat="43.28023" lon="2.26911">
        <ele>218</ele>
        <time>2019-06-12T11:04:27.000Z</time>
      </trkpt>
      <trkpt lat="43.28046" lon="2.26891">
        <ele>218</ele>
        <time>2019-06-12T11:04:49.000Z</time>
      </trkpt>
      <trkpt lat="43.2807" lon="2.26875">
        <ele>218</ele>
        <time>2019-06-12T11:05:11.000Z</time>
      </trkpt>
      <trkpt lat="43.28097" lon="2.26866">
        <ele>218</ele>
        <time>2019-06-12T11:05:34.000Z</time>
      </trkpt>
      <trkpt lat="43.28124" lon="2.26861">
        <ele>218</ele>
        <time>2019-06-12T11:05:53.000Z</time>
      </trkpt>
      <trkpt lat="43.28151" lon="2.26854">
        <ele>218</ele>
        <time>2019-06-12T11:06:19.000Z</time>
      </trkpt>
      <trkpt lat="43.28179" lon="2.2685">
        <ele>218</ele>
        <time>2019-06-12T11:06:42.000Z</time>
      </trkpt>
      <trkpt lat="43.28206" lon="2.26844">
        <ele>218</ele>
        <time>2019-06-12T11:07:8.000Z</time>
      </trkpt>
      <trkpt lat="43.28233" lon="2.26846">
        <ele>217</ele>
        <time>2019-06-12T11:07:33.000Z</time>
      </trkpt>
      <trkpt lat="43.2826" lon="2.26849">
        <ele>217</ele>
        <time>2019-06-12T11:07:57.000Z</time>
      </trkpt>
      <trkpt lat="43.28287" lon="2.26843">
        <ele>217</ele>
        <time>2019-06-12T11:08:22.000Z</time>
      </trkpt>
      <trkpt lat="43.28314" lon="2.26835">
        <ele>217</ele>
        <time>2019-06-12T11:08:44.000Z</time>
      </trkpt>
      <trkpt lat="43.2834" lon="2.26822">
        <ele>217</ele>
        <time>2019-06-12T11:09:6.000Z</time>
      </trkpt>
      <trkpt lat="43.28368" lon="2.26816">
        <ele>217</ele>
        <time>2019-06-12T11:09:29.000Z</time>
      </trkpt>
      <trkpt lat="43.28395" lon="2.26807">
        <ele>216</ele>
        <time>2019-06-12T11:09:50.000Z</time>
      </trkpt>
      <trkpt lat="43.28414" lon="2.26781">
        <ele>216</ele>
        <time>2019-06-12T11:10:19.000Z</time>
      </trkpt>
      <trkpt lat="43.2844" lon="2.2677">
        <ele>216</ele>
        <time>2019-06-12T11:11:39.000Z</time>
      </trkpt>
      <trkpt lat="43.28466" lon="2.26783">
        <ele>215</ele>
        <time>2019-06-12T11:12:13.000Z</time>
      </trkpt>
      <trkpt lat="43.28494" lon="2.26782">
        <ele>215</ele>
        <time>2019-06-12T11:12:42.000Z</time>
      </trkpt>
      <trkpt lat="43.28522" lon="2.26774">
        <ele>215</ele>
        <time>2019-06-12T11:13:11.000Z</time>
      </trkpt>
      <trkpt lat="43.28548" lon="2.26782">
        <ele>215</ele>
        <time>2019-06-12T11:13:37.000Z</time>
      </trkpt>
      <trkpt lat="43.28575" lon="2.26778">
        <ele>215</ele>
        <time>2019-06-12T11:14:6.000Z</time>
      </trkpt>
      <trkpt lat="43.286" lon="2.26761">
        <ele>215</ele>
        <time>2019-06-12T11:14:35.000Z</time>
      </trkpt>
      <trkpt lat="43.28626" lon="2.2675">
        <ele>215</ele>
        <time>2019-06-12T11:15:5.000Z</time>
      </trkpt>
      <trkpt lat="43.28654" lon="2.26745">
        <ele>216</ele>
        <time>2019-06-12T11:15:33.000Z</time>
      </trkpt>
      <trkpt lat="43.2868" lon="2.26754">
        <ele>216</ele>
        <time>2019-06-12T11:16:3.000Z</time>
      </trkpt>
      <trkpt lat="43.28707" lon="2.26761">
        <ele>216</ele>
        <time>2019-06-12T11:16:32.000Z</time>
      </trkpt>
      <trkpt lat="43.28735" lon="2.26765">
        <ele>216</ele>
        <time>2019-06-12T11:16:58.000Z</time>
      </trkpt>
      <trkpt lat="43.28762" lon="2.26771">
        <ele>217</ele>
        <time>2019-06-12T11:17:24.000Z</time>
      </trkpt>
      <trkpt lat="43.28788" lon="2.26783">
        <ele>217</ele>
        <time>2019-06-12T11:17:53.000Z</time>
      </trkpt>
      <trkpt lat="43.28815" lon="2.26791">
        <ele>218</ele>
        <time>2019-06-12T11:18:18.000Z</time>
      </trkpt>
      <trkpt lat="43.28842" lon="2.26799">
        <ele>218</ele>
        <time>2019-06-12T11:18:44.000Z</time>
      </trkpt>
      <trkpt lat="43.28867" lon="2.26816">
        <ele>219</ele>
        <time>2019-06-12T11:19:9.000Z</time>
      </trkpt>
      <trkpt lat="43.28893" lon="2.26831">
        <ele>219</ele>
        <time>2019-06-12T11:19:37.000Z</time>
      </trkpt>
      <trkpt lat="43.28916" lon="2.26856">
        <ele>220</ele>
        <time>2019-06-12T11:20:7.000Z</time>
      </trkpt>
      <trkpt lat="43.28942" lon="2.26866">
        <ele>220</ele>
        <time>2019-06-12T11:20:31.000Z</time>
      </trkpt>
      <trkpt lat="43.28966" lon="2.26885">
        <ele>220</ele>
        <time>2019-06-12T11:21:0.000Z</time>
      </trkpt>
      <trkpt lat="43.28991" lon="2.26902">
        <ele>221</ele>
        <time>2019-06-12T11:21:26.000Z</time>
      </trkpt>
      <trkpt lat="43.29015" lon="2.26919">
        <ele>221</ele>
        <time>2019-06-12T11:21:55.000Z</time>
      </trkpt>
      <trkpt lat="43.2904" lon="2.26935">
        <ele>222</ele>
        <time>2019-06-12T11:22:22.000Z</time>
      </trkpt>
      <trkpt lat="43.29067" lon="2.26947">
        <ele>223</ele>
        <time>2019-06-12T11:22:56.000Z</time>
      </trkpt>
      <trkpt lat="43.29093" lon="2.26958">
        <ele>223</ele>
        <time>2019-06-12T11:23:18.000Z</time>
      </trkpt>
      <trkpt lat="43.29118" lon="2.26973">
        <ele>223</ele>
        <time>2019-06-12T11:23:46.000Z</time>
      </trkpt>
      <trkpt lat="43.29145" lon="2.26985">
        <ele>224</ele>
        <time>2019-06-12T11:24:12.000Z</time>
      </trkpt>
      <trkpt lat="43.2917" lon="2.27">
        <ele>225</ele>
        <time>2019-06-12T11:24:40.000Z</time>
      </trkpt>
      <trkpt lat="43.29196" lon="2.27012">
        <ele>226</ele>
        <time>2019-06-12T11:25:9.000Z</time>
      </trkpt>
      <trkpt lat="43.29222" lon="2.27025">
        <ele>227</ele>
        <time>2019-06-12T11:25:35.000Z</time>
      </trkpt>
      <trkpt lat="43.29249" lon="2.27032">
        <ele>228</ele>
        <time>2019-06-12T11:26:2.000Z</time>
      </trkpt>
      <trkpt lat="43.29276" lon="2.27035">
        <ele>228</ele>
        <time>2019-06-12T11:26:30.000Z</time>
      </trkpt>
      <trkpt lat="43.29303" lon="2.27036">
        <ele>230</ele>
        <time>2019-06-12T11:26:58.000Z</time>
      </trkpt>
      <trkpt lat="43.29331" lon="2.27039">
        <ele>232</ele>
        <time>2019-06-12T11:27:29.000Z</time>
      </trkpt>
      <trkpt lat="43.29359" lon="2.27043">
        <ele>234</ele>
        <time>2019-06-12T11:27:55.000Z</time>
      </trkpt>
      <trkpt lat="43.29386" lon="2.2705">
        <ele>236</ele>
        <time>2019-06-12T11:28:24.000Z</time>
      </trkpt>
      <trkpt lat="43.29414" lon="2.27056">
        <ele>237</ele>
        <time>2019-06-12T11:28:49.000Z</time>
      </trkpt>
      <trkpt lat="43.2944" lon="2.27068">
        <ele>239</ele>
        <time>2019-06-12T11:29:14.000Z</time>
      </trkpt>
      <trkpt lat="43.29467" lon="2.27075">
        <ele>242</ele>
        <time>2019-06-12T11:29:40.000Z</time>
      </trkpt>
      <trkpt lat="43.29494" lon="2.2708">
        <ele>244</ele>
        <time>2019-06-12T11:30:8.000Z</time>
      </trkpt>
      <trkpt lat="43.2952" lon="2.27089">
        <ele>246</ele>
        <time>2019-06-12T11:30:32.000Z</time>
      </trkpt>
      <trkpt lat="43.29548" lon="2.27094">
        <ele>247</ele>
        <time>2019-06-12T11:30:57.000Z</time>
      </trkpt>
      <trkpt lat="43.29575" lon="2.27095">
        <ele>249</ele>
        <time>2019-06-12T11:31:22.000Z</time>
      </trkpt>
      <trkpt lat="43.29602" lon="2.27095">
        <ele>251</ele>
        <time>2019-06-12T11:31:48.000Z</time>
      </trkpt>
      <trkpt lat="43.29629" lon="2.27106">
        <ele>252</ele>
        <time>2019-06-12T11:32:15.000Z</time>
      </trkpt>
      <trkpt lat="43.29657" lon="2.27107">
        <ele>253</ele>
        <time>2019-06-12T11:32:41.000Z</time>
      </trkpt>
      <trkpt lat="43.29684" lon="2.27111">
        <ele>254</ele>
        <time>2019-06-12T11:33:6.000Z</time>
      </trkpt>
      <trkpt lat="43.29712" lon="2.27115">
        <ele>255</ele>
        <time>2019-06-12T11:33:34.000Z</time>
      </trkpt>
      <trkpt lat="43.2974" lon="2.27116">
        <ele>256</ele>
        <time>2019-06-12T11:34:1.000Z</time>
      </trkpt>
      <trkpt lat="43.29768" lon="2.2711">
        <ele>257</ele>
        <time>2019-06-12T11:34:32.000Z</time>
      </trkpt>
      <trkpt lat="43.29795" lon="2.27108">
        <ele>259</ele>
        <time>2019-06-12T11:35:2.000Z</time>
      </trkpt>
      <trkpt lat="43.29821" lon="2.27096">
        <ele>260</ele>
        <time>2019-06-12T11:35:27.000Z</time>
      </trkpt>
      <trkpt lat="43.29845" lon="2.27078">
        <ele>274</ele>
        <time>2019-06-12T11:40:42.000Z</time>
      </trkpt>
      <trkpt lat="43.29873" lon="2.27072">
        <ele>277</ele>
        <time>2019-06-12T11:41:18.000Z</time>
      </trkpt>
      <trkpt lat="43.299" lon="2.2707">
        <ele>278</ele>
        <time>2019-06-12T11:41:53.000Z</time>
      </trkpt>
      <trkpt lat="43.29927" lon="2.27069">
        <ele>280</ele>
        <time>2019-06-12T11:42:23.000Z</time>
      </trkpt>
      <trkpt lat="43.29955" lon="2.27069">
        <ele>280</ele>
        <time>2019-06-12T11:42:54.000Z</time>
      </trkpt>
      <trkpt lat="43.29981" lon="2.27079">
        <ele>281</ele>
        <time>2019-06-12T11:43:20.000Z</time>
      </trkpt>
      <trkpt lat="43.30006" lon="2.27096">
        <ele>281</ele>
        <time>2019-06-12T11:43:45.000Z</time>
      </trkpt>
      <trkpt lat="43.30031" lon="2.2711">
        <ele>282</ele>
        <time>2019-06-12T11:44:8.000Z</time>
      </trkpt>
      <trkpt lat="43.30058" lon="2.27099">
        <ele>282</ele>
        <time>2019-06-12T11:44:32.000Z</time>
      </trkpt>
      <trkpt lat="43.30072" lon="2.27067">
        <ele>283</ele>
        <time>2019-06-12T11:44:51.000Z</time>
      </trkpt>
      <trkpt lat="43.3009" lon="2.27038">
        <ele>284</ele>
        <time>2019-06-12T11:45:15.000Z</time>
      </trkpt>
      <trkpt lat="43.30105" lon="2.27006">
        <ele>286</ele>
        <time>2019-06-12T11:45:34.000Z</time>
      </trkpt>
      <trkpt lat="43.30124" lon="2.2698">
        <ele>288</ele>
        <time>2019-06-12T11:46:0.000Z</time>
      </trkpt>
      <trkpt lat="43.30145" lon="2.26954">
        <ele>290</ele>
        <time>2019-06-12T11:46:23.000Z</time>
      </trkpt>
      <trkpt lat="43.30167" lon="2.2693">
        <ele>293</ele>
        <time>2019-06-12T11:46:53.000Z</time>
      </trkpt>
      <trkpt lat="43.30193" lon="2.26917">
        <ele>294</ele>
        <time>2019-06-12T11:47:16.000Z</time>
      </trkpt>
      <trkpt lat="43.30211" lon="2.2689">
        <ele>296</ele>
        <time>2019-06-12T11:47:43.000Z</time>
      </trkpt>
      <trkpt lat="43.30231" lon="2.26865">
        <ele>298</ele>
        <time>2019-06-12T11:48:9.000Z</time>
      </trkpt>
      <trkpt lat="43.30253" lon="2.2684">
        <ele>299</ele>
        <time>2019-06-12T11:48:34.000Z</time>
      </trkpt>
      <trkpt lat="43.30278" lon="2.26822">
        <ele>300</ele>
        <time>2019-06-12T11:49:1.000Z</time>
      </trkpt>
      <trkpt lat="43.30296" lon="2.26794">
        <ele>301</ele>
        <time>2019-06-12T11:49:23.000Z</time>
      </trkpt>
      <trkpt lat="43.30319" lon="2.2677">
        <ele>302</ele>
        <time>2019-06-12T11:49:52.000Z</time>
      </trkpt>
      <trkpt lat="43.30336" lon="2.26741">
        <ele>303</ele>
        <time>2019-06-12T11:50:18.000Z</time>
      </trkpt>
      <trkpt lat="43.30355" lon="2.26714">
        <ele>304</ele>
        <time>2019-06-12T11:50:42.000Z</time>
      </trkpt>
      <trkpt lat="43.30369" lon="2.26682">
        <ele>305</ele>
        <time>2019-06-12T11:51:4.000Z</time>
      </trkpt>
      <trkpt lat="43.30385" lon="2.26652">
        <ele>305</ele>
        <time>2019-06-12T11:51:27.000Z</time>
      </trkpt>
      <trkpt lat="43.30403" lon="2.26623">
        <ele>306</ele>
        <time>2019-06-12T11:51:53.000Z</time>
      </trkpt>
      <trkpt lat="43.3042" lon="2.26593">
        <ele>307</ele>
        <time>2019-06-12T11:52:19.000Z</time>
      </trkpt>
      <trkpt lat="43.30435" lon="2.26561">
        <ele>308</ele>
        <time>2019-06-12T11:52:43.000Z</time>
      </trkpt>
      <trkpt lat="43.3045" lon="2.26529">
        <ele>309</ele>
        <time>2019-06-12T11:53:6.000Z</time>
      </trkpt>
      <trkpt lat="43.30466" lon="2.265">
        <ele>310</ele>
        <time>2019-06-12T11:53:31.000Z</time>
      </trkpt>
      <trkpt lat="43.30484" lon="2.26472">
        <ele>311</ele>
        <time>2019-06-12T11:54:33.000Z</time>
      </trkpt>
      <trkpt lat="43.30499" lon="2.26439">
        <ele>313</ele>
        <time>2019-06-12T11:56:36.000Z</time>
      </trkpt>
      <trkpt lat="43.30513" lon="2.26408">
        <ele>313</ele>
        <time>2019-06-12T11:57:4.000Z</time>
      </trkpt>
      <trkpt lat="43.30528" lon="2.26375">
        <ele>314</ele>
        <time>2019-06-12T11:57:31.000Z</time>
      </trkpt>
      <trkpt lat="43.30543" lon="2.26344">
        <ele>314</ele>
        <time>2019-06-12T11:57:53.000Z</time>
      </trkpt>
      <trkpt lat="43.30553" lon="2.26308">
        <ele>315</ele>
        <time>2019-06-12T11:58:15.000Z</time>
      </trkpt>
      <trkpt lat="43.30569" lon="2.26275">
        <ele>315</ele>
        <time>2019-06-12T11:58:42.000Z</time>
      </trkpt>
      <trkpt lat="43.30588" lon="2.26247">
        <ele>315</ele>
        <time>2019-06-12T11:59:12.000Z</time>
      </trkpt>
      <trkpt lat="43.306" lon="2.26211">
        <ele>316</ele>
        <time>2019-06-12T11:59:34.000Z</time>
      </trkpt>
      <trkpt lat="43.3061" lon="2.26176">
        <ele>316</ele>
        <time>2019-06-12T11:59:57.000Z</time>
      </trkpt>
      <trkpt lat="43.30628" lon="2.26146">
        <ele>316</ele>
        <time>2019-06-12T12:00:19.000Z</time>
      </trkpt>
      <trkpt lat="43.30647" lon="2.26118">
        <ele>316</ele>
        <time>2019-06-12T12:00:43.000Z</time>
      </trkpt>
      <trkpt lat="43.30664" lon="2.26088">
        <ele>316</ele>
        <time>2019-06-12T12:01:7.000Z</time>
      </trkpt>
      <trkpt lat="43.30683" lon="2.26059">
        <ele>317</ele>
        <time>2019-06-12T12:01:33.000Z</time>
      </trkpt>
      <trkpt lat="43.30706" lon="2.26037">
        <ele>317</ele>
        <time>2019-06-12T12:02:7.000Z</time>
      </trkpt>
      <trkpt lat="43.30718" lon="2.26004">
        <ele>317</ele>
        <time>2019-06-12T12:02:29.000Z</time>
      </trkpt>
      <trkpt lat="43.3073" lon="2.2597">
        <ele>318</ele>
        <time>2019-06-12T12:02:54.000Z</time>
      </trkpt>
      <trkpt lat="43.30741" lon="2.25934">
        <ele>318</ele>
        <time>2019-06-12T12:03:18.000Z</time>
      </trkpt>
      <trkpt lat="43.30752" lon="2.25898">
        <ele>318</ele>
        <time>2019-06-12T12:03:44.000Z</time>
      </trkpt>
      <trkpt lat="43.30764" lon="2.25865">
        <ele>318</ele>
        <time>2019-06-12T12:04:2.000Z</time>
      </trkpt>
      <trkpt lat="43.30774" lon="2.2583">
        <ele>318</ele>
        <time>2019-06-12T12:04:24.000Z</time>
      </trkpt>
      <trkpt lat="43.30779" lon="2.25793">
        <ele>318</ele>
        <time>2019-06-12T12:04:42.000Z</time>
      </trkpt>
      <trkpt lat="43.30789" lon="2.25758">
        <ele>318</ele>
        <time>2019-06-12T12:05:5.000Z</time>
      </trkpt>
      <trkpt lat="43.30799" lon="2.25723">
        <ele>318</ele>
        <time>2019-06-12T12:05:30.000Z</time>
      </trkpt>
      <trkpt lat="43.30807" lon="2.25687">
        <ele>318</ele>
        <time>2019-06-12T12:05:54.000Z</time>
      </trkpt>
      <trkpt lat="43.30815" lon="2.25651">
        <ele>318</ele>
        <time>2019-06-12T12:06:12.000Z</time>
      </trkpt>
      <trkpt lat="43.30821" lon="2.25615">
        <ele>318</ele>
        <time>2019-06-12T12:06:32.000Z</time>
      </trkpt>
      <trkpt lat="43.30833" lon="2.25581">
        <ele>318</ele>
        <time>2019-06-12T12:06:56.000Z</time>
      </trkpt>
      <trkpt lat="43.30848" lon="2.25549">
        <ele>318</ele>
        <time>2019-06-12T12:07:21.000Z</time>
      </trkpt>
      <trkpt lat="43.30852" lon="2.25512">
        <ele>318</ele>
        <time>2019-06-12T12:07:41.000Z</time>
      </trkpt>
      <trkpt lat="43.30857" lon="2.25475">
        <ele>318</ele>
        <time>2019-06-12T12:08:3.000Z</time>
      </trkpt>
      <trkpt lat="43.30861" lon="2.25438">
        <ele>319</ele>
        <time>2019-06-12T12:08:25.000Z</time>
      </trkpt>
      <trkpt lat="43.30863" lon="2.254">
        <ele>319</ele>
        <time>2019-06-12T12:08:40.000Z</time>
      </trkpt>
      <trkpt lat="43.3087" lon="2.25364">
        <ele>319</ele>
        <time>2019-06-12T12:08:59.000Z</time>
      </trkpt>
      <trkpt lat="43.30871" lon="2.25327">
        <ele>319</ele>
        <time>2019-06-12T12:09:27.000Z</time>
      </trkpt>
      <trkpt lat="43.3088" lon="2.2529">
        <ele>320</ele>
        <time>2019-06-12T12:09:43.000Z</time>
      </trkpt>
      <trkpt lat="43.30894" lon="2.25258">
        <ele>320</ele>
        <time>2019-06-12T12:10:5.000Z</time>
      </trkpt>
      <trkpt lat="43.30908" lon="2.25226">
        <ele>320</ele>
        <time>2019-06-12T12:10:29.000Z</time>
      </trkpt>
      <trkpt lat="43.3092" lon="2.25192">
        <ele>321</ele>
        <time>2019-06-12T12:10:50.000Z</time>
      </trkpt>
      <trkpt lat="43.30923" lon="2.25155">
        <ele>321</ele>
        <time>2019-06-12T12:11:12.000Z</time>
      </trkpt>
      <trkpt lat="43.30928" lon="2.25117">
        <ele>321</ele>
        <time>2019-06-12T12:11:33.000Z</time>
      </trkpt>
      <trkpt lat="43.30935" lon="2.25081">
        <ele>321</ele>
        <time>2019-06-12T12:11:56.000Z</time>
      </trkpt>
      <trkpt lat="43.30947" lon="2.25047">
        <ele>321</ele>
        <time>2019-06-12T12:12:20.000Z</time>
      </trkpt>
      <trkpt lat="43.30939" lon="2.25011">
        <ele>321</ele>
        <time>2019-06-12T12:12:47.000Z</time>
      </trkpt>
      <trkpt lat="43.30918" lon="2.24987">
        <ele>321</ele>
        <time>2019-06-12T12:13:13.000Z</time>
      </trkpt>
      <trkpt lat="43.30899" lon="2.24959">
        <ele>321</ele>
        <time>2019-06-12T12:13:30.000Z</time>
      </trkpt>
      <trkpt lat="43.30881" lon="2.2493">
        <ele>320</ele>
        <time>2019-06-12T12:13:51.000Z</time>
      </trkpt>
      <trkpt lat="43.30873" lon="2.24891">
        <ele>319</ele>
        <time>2019-06-12T12:14:9.000Z</time>
      </trkpt>
      <trkpt lat="43.30864" lon="2.24856">
        <ele>318</ele>
        <time>2019-06-12T12:14:33.000Z</time>
      </trkpt>
      <trkpt lat="43.30844" lon="2.2483">
        <ele>318</ele>
        <time>2019-06-12T12:19:0.000Z</time>
      </trkpt>
      <trkpt lat="43.30834" lon="2.24795">
        <ele>318</ele>
        <time>2019-06-12T12:19:26.000Z</time>
      </trkpt>
      <trkpt lat="43.30815" lon="2.24767">
        <ele>318</ele>
        <time>2019-06-12T12:19:47.000Z</time>
      </trkpt>
      <trkpt lat="43.30807" lon="2.24731">
        <ele>318</ele>
        <time>2019-06-12T12:20:9.000Z</time>
      </trkpt>
      <trkpt lat="43.30799" lon="2.24696">
        <ele>318</ele>
        <time>2019-06-12T12:20:31.000Z</time>
      </trkpt>
      <trkpt lat="43.30786" lon="2.24663">
        <ele>317</ele>
        <time>2019-06-12T12:20:56.000Z</time>
      </trkpt>
      <trkpt lat="43.30773" lon="2.24628">
        <ele>316</ele>
        <time>2019-06-12T12:21:21.000Z</time>
      </trkpt>
      <trkpt lat="43.3076" lon="2.24594">
        <ele>315</ele>
        <time>2019-06-12T12:21:38.000Z</time>
      </trkpt>
      <trkpt lat="43.30746" lon="2.24561">
        <ele>315</ele>
        <time>2019-06-12T12:21:57.000Z</time>
      </trkpt>
      <trkpt lat="43.30737" lon="2.24526">
        <ele>314</ele>
        <time>2019-06-12T12:22:20.000Z</time>
      </trkpt>
      <trkpt lat="43.30723" lon="2.24493">
        <ele>314</ele>
        <time>2019-06-12T12:22:41.000Z</time>
      </trkpt>
      <trkpt lat="43.30712" lon="2.24458">
        <ele>313</ele>
        <time>2019-06-12T12:23:7.000Z</time>
      </trkpt>
      <trkpt lat="43.30707" lon="2.24421">
        <ele>312</ele>
        <time>2019-06-12T12:23:29.000Z</time>
      </trkpt>
      <trkpt lat="43.30692" lon="2.24389">
        <ele>312</ele>
        <time>2019-06-12T12:23:54.000Z</time>
      </trkpt>
      <trkpt lat="43.30677" lon="2.24357">
        <ele>311</ele>
        <time>2019-06-12T12:24:21.000Z</time>
      </trkpt>
      <trkpt lat="43.30659" lon="2.24328">
        <ele>310</ele>
        <time>2019-06-12T12:24:46.000Z</time>
      </trkpt>
      <trkpt lat="43.3065" lon="2.24291">
        <ele>309</ele>
        <time>2019-06-12T12:25:6.000Z</time>
      </trkpt>
      <trkpt lat="43.30632" lon="2.24261">
        <ele>309</ele>
        <time>2019-06-12T12:25:27.000Z</time>
      </trkpt>
      <trkpt lat="43.30622" lon="2.24226">
        <ele>308</ele>
        <time>2019-06-12T12:25:53.000Z</time>
      </trkpt>
      <trkpt lat="43.30613" lon="2.24191">
        <ele>307</ele>
        <time>2019-06-12T12:26:18.000Z</time>
      </trkpt>
      <trkpt lat="43.3061" lon="2.24153">
        <ele>307</ele>
        <time>2019-06-12T12:26:44.000Z</time>
      </trkpt>
      <trkpt lat="43.30606" lon="2.24116">
        <ele>306</ele>
        <time>2019-06-12T12:27:8.000Z</time>
      </trkpt>
      <trkpt lat="43.30603" lon="2.24077">
        <ele>306</ele>
        <time>2019-06-12T12:27:30.000Z</time>
      </trkpt>
      <trkpt lat="43.30596" lon="2.24041">
        <ele>305</ele>
        <time>2019-06-12T12:27:57.000Z</time>
      </trkpt>
      <trkpt lat="43.30589" lon="2.24005">
        <ele>305</ele>
        <time>2019-06-12T12:28:24.000Z</time>
      </trkpt>
      <trkpt lat="43.30579" lon="2.23969">
        <ele>304</ele>
        <time>2019-06-12T12:28:54.000Z</time>
      </trkpt>
      <trkpt lat="43.30567" lon="2.23935">
        <ele>304</ele>
        <time>2019-06-12T12:29:14.000Z</time>
      </trkpt>
      <trkpt lat="43.30557" lon="2.23901">
        <ele>303</ele>
        <time>2019-06-12T12:29:33.000Z</time>
      </trkpt>
      <trkpt lat="43.30548" lon="2.23866">
        <ele>303</ele>
        <time>2019-06-12T12:29:56.000Z</time>
      </trkpt>
      <trkpt lat="43.30535" lon="2.23831">
        <ele>302</ele>
        <time>2019-06-12T12:30:19.000Z</time>
      </trkpt>
      <trkpt lat="43.30521" lon="2.23799">
        <ele>302</ele>
        <time>2019-06-12T12:30:44.000Z</time>
      </trkpt>
      <trkpt lat="43.3051" lon="2.23765">
        <ele>301</ele>
        <time>2019-06-12T12:31:12.000Z</time>
      </trkpt>
      <trkpt lat="43.30504" lon="2.23727">
        <ele>301</ele>
        <time>2019-06-12T12:31:35.000Z</time>
      </trkpt>
      <trkpt lat="43.30499" lon="2.23691">
        <ele>300</ele>
        <time>2019-06-12T12:32:0.000Z</time>
      </trkpt>
      <trkpt lat="43.30489" lon="2.23657">
        <ele>300</ele>
        <time>2019-06-12T12:32:24.000Z</time>
      </trkpt>
      <trkpt lat="43.30481" lon="2.2362">
        <ele>299</ele>
        <time>2019-06-12T12:32:45.000Z</time>
      </trkpt>
      <trkpt lat="43.30475" lon="2.23584">
        <ele>299</ele>
        <time>2019-06-12T12:33:10.000Z</time>
      </trkpt>
      <trkpt lat="43.30477" lon="2.23546">
        <ele>298</ele>
        <time>2019-06-12T12:33:35.000Z</time>
      </trkpt>
      <trkpt lat="43.30475" lon="2.23509">
        <ele>298</ele>
        <time>2019-06-12T12:33:56.000Z</time>
      </trkpt>
      <trkpt lat="43.30502" lon="2.23506">
        <ele>298</ele>
        <time>2019-06-12T12:37:5.000Z</time>
      </trkpt>
      <trkpt lat="43.30508" lon="2.23469">
        <ele>298</ele>
        <time>2019-06-12T12:37:33.000Z</time>
      </trkpt>
      <trkpt lat="43.30514" lon="2.23433">
        <ele>298</ele>
        <time>2019-06-12T12:38:7.000Z</time>
      </trkpt>
      <trkpt lat="43.3052" lon="2.23396">
        <ele>298</ele>
        <time>2019-06-12T12:38:36.000Z</time>
      </trkpt>
      <trkpt lat="43.30528" lon="2.23361">
        <ele>298</ele>
        <time>2019-06-12T12:39:1.000Z</time>
      </trkpt>
      <trkpt lat="43.30527" lon="2.23323">
        <ele>298</ele>
        <time>2019-06-12T12:39:42.000Z</time>
      </trkpt>
      <trkpt lat="43.3053" lon="2.23286">
        <ele>297</ele>
        <time>2019-06-12T12:40:7.000Z</time>
      </trkpt>
      <trkpt lat="43.30529" lon="2.23248">
        <ele>297</ele>
        <time>2019-06-12T12:40:30.000Z</time>
      </trkpt>
      <trkpt lat="43.30534" lon="2.23211">
        <ele>297</ele>
        <time>2019-06-12T12:41:3.000Z</time>
      </trkpt>
      <trkpt lat="43.3054" lon="2.23173">
        <ele>297</ele>
        <time>2019-06-12T12:41:32.000Z</time>
      </trkpt>
      <trkpt lat="43.30539" lon="2.23136">
        <ele>297</ele>
        <time>2019-06-12T12:42:16.000Z</time>
      </trkpt>
      <trkpt lat="43.30545" lon="2.23099">
        <ele>297</ele>
        <time>2019-06-12T12:42:49.000Z</time>
      </trkpt>
      <trkpt lat="43.30551" lon="2.23063">
        <ele>297</ele>
        <time>2019-06-12T12:43:11.000Z</time>
      </trkpt>
      <trkpt lat="43.30537" lon="2.23095">
        <ele>317</ele>
        <time>2019-06-12T13:21:46.000Z</time>
      </trkpt>
      <trkpt lat="43.30533" lon="2.23132">
        <ele>317</ele>
        <time>2019-06-12T13:22:15.000Z</time>
      </trkpt>
      <trkpt lat="43.30516" lon="2.23162">
        <ele>317</ele>
        <time>2019-06-12T13:22:52.000Z</time>
      </trkpt>
      <trkpt lat="43.30502" lon="2.23194">
        <ele>318</ele>
        <time>2019-06-12T13:23:12.000Z</time>
      </trkpt>
      <trkpt lat="43.30486" lon="2.23225">
        <ele>318</ele>
        <time>2019-06-12T13:23:33.000Z</time>
      </trkpt>
      <trkpt lat="43.30471" lon="2.23257">
        <ele>318</ele>
        <time>2019-06-12T13:24:2.000Z</time>
      </trkpt>
      <trkpt lat="43.30461" lon="2.23222">
        <ele>318</ele>
        <time>2019-06-12T13:24:50.000Z</time>
      </trkpt>
      <trkpt lat="43.30463" lon="2.23185">
        <ele>318</ele>
        <time>2019-06-12T13:25:25.000Z</time>
      </trkpt>
      <trkpt lat="43.30459" lon="2.23148">
        <ele>317</ele>
        <time>2019-06-12T13:25:56.000Z</time>
      </trkpt>
      <trkpt lat="43.30454" lon="2.23184">
        <ele>317</ele>
        <time>2019-06-12T13:27:15.000Z</time>
      </trkpt>
      <trkpt lat="43.3045" lon="2.23223">
        <ele>317</ele>
        <time>2019-06-12T13:27:47.000Z</time>
      </trkpt>
      <trkpt lat="43.30445" lon="2.23261">
        <ele>317</ele>
        <time>2019-06-12T13:28:10.000Z</time>
      </trkpt>
      <trkpt lat="43.30442" lon="2.23299">
        <ele>317</ele>
        <time>2019-06-12T13:28:37.000Z</time>
      </trkpt>
      <trkpt lat="43.30441" lon="2.23336">
        <ele>317</ele>
        <time>2019-06-12T13:29:5.000Z</time>
      </trkpt>
      <trkpt lat="43.30444" lon="2.23374">
        <ele>317</ele>
        <time>2019-06-12T13:29:31.000Z</time>
      </trkpt>
      <trkpt lat="43.30444" lon="2.23412">
        <ele>317</ele>
        <time>2019-06-12T13:29:58.000Z</time>
      </trkpt>
      <trkpt lat="43.30448" lon="2.23449">
        <ele>317</ele>
        <time>2019-06-12T13:30:26.000Z</time>
      </trkpt>
      <trkpt lat="43.30461" lon="2.23483">
        <ele>317</ele>
        <time>2019-06-12T13:30:55.000Z</time>
      </trkpt>
      <trkpt lat="43.30467" lon="2.23519">
        <ele>317</ele>
        <time>2019-06-12T13:31:27.000Z</time>
      </trkpt>
      <trkpt lat="43.30467" lon="2.23556">
        <ele>317</ele>
        <time>2019-06-12T13:31:55.000Z</time>
      </trkpt>
      <trkpt lat="43.30465" lon="2.23594">
        <ele>317</ele>
        <time>2019-06-12T13:32:25.000Z</time>
      </trkpt>
      <trkpt lat="43.30471" lon="2.23631">
        <ele>317</ele>
        <time>2019-06-12T13:32:54.000Z</time>
      </trkpt>
      <trkpt lat="43.30469" lon="2.23668">
        <ele>317</ele>
        <time>2019-06-12T13:33:31.000Z</time>
      </trkpt>
      <trkpt lat="43.3046" lon="2.23703">
        <ele>317</ele>
        <time>2019-06-12T13:33:58.000Z</time>
      </trkpt>
      <trkpt lat="43.30453" lon="2.23739">
        <ele>317</ele>
        <time>2019-06-12T13:34:26.000Z</time>
      </trkpt>
      <trkpt lat="43.3045" lon="2.23776">
        <ele>318</ele>
        <time>2019-06-12T13:34:58.000Z</time>
      </trkpt>
      <trkpt lat="43.30444" lon="2.23813">
        <ele>318</ele>
        <time>2019-06-12T13:35:26.000Z</time>
      </trkpt>
      <trkpt lat="43.30442" lon="2.2385">
        <ele>318</ele>
        <time>2019-06-12T13:35:48.000Z</time>
      </trkpt>
      <trkpt lat="43.30437" lon="2.23888">
        <ele>318</ele>
        <time>2019-06-12T13:36:12.000Z</time>
      </trkpt>
      <trkpt lat="43.30426" lon="2.23922">
        <ele>319</ele>
        <time>2019-06-12T13:36:38.000Z</time>
      </trkpt>
      <trkpt lat="43.30421" lon="2.2396">
        <ele>319</ele>
        <time>2019-06-12T13:37:2.000Z</time>
      </trkpt>
      <trkpt lat="43.30417" lon="2.23998">
        <ele>319</ele>
        <time>2019-06-12T13:37:30.000Z</time>
      </trkpt>
      <trkpt lat="43.30406" lon="2.24033">
        <ele>319</ele>
        <time>2019-06-12T13:37:52.000Z</time>
      </trkpt>
      <trkpt lat="43.30394" lon="2.24067">
        <ele>320</ele>
        <time>2019-06-12T13:38:14.000Z</time>
      </trkpt>
      <trkpt lat="43.30393" lon="2.24104">
        <ele>320</ele>
        <time>2019-06-12T13:38:39.000Z</time>
      </trkpt>
      <trkpt lat="43.30387" lon="2.24141">
        <ele>320</ele>
        <time>2019-06-12T13:39:1.000Z</time>
      </trkpt>
      <trkpt lat="43.30385" lon="2.24179">
        <ele>321</ele>
        <time>2019-06-12T13:39:27.000Z</time>
      </trkpt>
      <trkpt lat="43.30384" lon="2.24217">
        <ele>321</ele>
        <time>2019-06-12T13:39:51.000Z</time>
      </trkpt>
      <trkpt lat="43.30381" lon="2.24254">
        <ele>321</ele>
        <time>2019-06-12T13:40:17.000Z</time>
      </trkpt>
      <trkpt lat="43.30379" lon="2.24292">
        <ele>321</ele>
        <time>2019-06-12T13:40:41.000Z</time>
      </trkpt>
      <trkpt lat="43.30372" lon="2.24328">
        <ele>321</ele>
        <time>2019-06-12T13:41:8.000Z</time>
      </trkpt>
      <trkpt lat="43.30367" lon="2.24365">
        <ele>322</ele>
        <time>2019-06-12T13:41:32.000Z</time>
      </trkpt>
      <trkpt lat="43.30366" lon="2.24402">
        <ele>322</ele>
        <time>2019-06-12T13:41:53.000Z</time>
      </trkpt>
      <trkpt lat="43.3037" lon="2.24441">
        <ele>322</ele>
        <time>2019-06-12T13:42:17.000Z</time>
      </trkpt>
      <trkpt lat="43.30367" lon="2.24479">
        <ele>322</ele>
        <time>2019-06-12T13:42:42.000Z</time>
      </trkpt>
      <trkpt lat="43.30361" lon="2.24515">
        <ele>322</ele>
        <time>2019-06-12T13:43:6.000Z</time>
      </trkpt>
      <trkpt lat="43.30341" lon="2.24541">
        <ele>323</ele>
        <time>2019-06-12T13:43:28.000Z</time>
      </trkpt>
      <trkpt lat="43.30314" lon="2.24539">
        <ele>323</ele>
        <time>2019-06-12T13:43:58.000Z</time>
      </trkpt>
      <trkpt lat="43.30287" lon="2.24529">
        <ele>323</ele>
        <time>2019-06-12T13:44:22.000Z</time>
      </trkpt>
      <trkpt lat="43.30264" lon="2.24509">
        <ele>323</ele>
        <time>2019-06-12T13:44:44.000Z</time>
      </trkpt>
      <trkpt lat="43.30242" lon="2.24486">
        <ele>324</ele>
        <time>2019-06-12T13:45:6.000Z</time>
      </trkpt>
      <trkpt lat="43.30218" lon="2.2447">
        <ele>324</ele>
        <time>2019-06-12T13:45:29.000Z</time>
      </trkpt>
      <trkpt lat="43.30192" lon="2.24456">
        <ele>324</ele>
        <time>2019-06-12T13:45:57.000Z</time>
      </trkpt>
      <trkpt lat="43.30168" lon="2.24438">
        <ele>324</ele>
        <time>2019-06-12T13:46:22.000Z</time>
      </trkpt>
      <trkpt lat="43.30144" lon="2.2442">
        <ele>324</ele>
        <time>2019-06-12T13:46:46.000Z</time>
      </trkpt>
      <trkpt lat="43.30121" lon="2.24401">
        <ele>324</ele>
        <time>2019-06-12T13:47:10.000Z</time>
      </trkpt>
      <trkpt lat="43.30106" lon="2.2437">
        <ele>325</ele>
        <time>2019-06-12T13:50:59.000Z</time>
      </trkpt>
      <trkpt lat="43.30085" lon="2.24345">
        <ele>326</ele>
        <time>2019-06-12T13:51:23.000Z</time>
      </trkpt>
      <trkpt lat="43.30063" lon="2.2432">
        <ele>326</ele>
        <time>2019-06-12T13:51:46.000Z</time>
      </trkpt>
      <trkpt lat="43.30042" lon="2.24295">
        <ele>326</ele>
        <time>2019-06-12T13:52:8.000Z</time>
      </trkpt>
      <trkpt lat="43.30028" lon="2.24263">
        <ele>326</ele>
        <time>2019-06-12T13:52:32.000Z</time>
      </trkpt>
      <trkpt lat="43.30009" lon="2.24235">
        <ele>326</ele>
        <time>2019-06-12T13:52:55.000Z</time>
      </trkpt>
      <trkpt lat="43.29989" lon="2.24211">
        <ele>327</ele>
        <time>2019-06-12T13:53:18.000Z</time>
      </trkpt>
      <trkpt lat="43.29967" lon="2.24189">
        <ele>327</ele>
        <time>2019-06-12T13:53:42.000Z</time>
      </trkpt>
      <trkpt lat="43.29943" lon="2.24169">
        <ele>327</ele>
        <time>2019-06-12T13:54:7.000Z</time>
      </trkpt>
      <trkpt lat="43.29923" lon="2.24145">
        <ele>327</ele>
        <time>2019-06-12T13:54:27.000Z</time>
      </trkpt>
      <trkpt lat="43.29898" lon="2.24128">
        <ele>327</ele>
        <time>2019-06-12T13:54:49.000Z</time>
      </trkpt>
      <trkpt lat="43.29873" lon="2.24107">
        <ele>327</ele>
        <time>2019-06-12T13:55:13.000Z</time>
      </trkpt>
      <trkpt lat="43.2985" lon="2.24086">
        <ele>327</ele>
        <time>2019-06-12T13:55:35.000Z</time>
      </trkpt>
      <trkpt lat="43.29827" lon="2.24063">
        <ele>327</ele>
        <time>2019-06-12T13:55:57.000Z</time>
      </trkpt>
      <trkpt lat="43.29809" lon="2.24035">
        <ele>327</ele>
        <time>2019-06-12T13:56:19.000Z</time>
      </trkpt>
      <trkpt lat="43.29796" lon="2.24001">
        <ele>327</ele>
        <time>2019-06-12T13:56:40.000Z</time>
      </trkpt>
      <trkpt lat="43.29769" lon="2.24007">
        <ele>327</ele>
        <time>2019-06-12T13:57:49.000Z</time>
      </trkpt>
      <trkpt lat="43.29747" lon="2.2403">
        <ele>327</ele>
        <time>2019-06-12T13:58:9.000Z</time>
      </trkpt>
      <trkpt lat="43.29729" lon="2.24058">
        <ele>327</ele>
        <time>2019-06-12T13:58:33.000Z</time>
      </trkpt>
      <trkpt lat="43.29702" lon="2.24057">
        <ele>326</ele>
        <time>2019-06-12T13:59:1.000Z</time>
      </trkpt>
      <trkpt lat="43.29674" lon="2.24047">
        <ele>326</ele>
        <time>2019-06-12T13:59:24.000Z</time>
      </trkpt>
      <trkpt lat="43.29648" lon="2.2404">
        <ele>326</ele>
        <time>2019-06-12T13:59:44.000Z</time>
      </trkpt>
      <trkpt lat="43.29621" lon="2.24031">
        <ele>326</ele>
        <time>2019-06-12T14:00:9.000Z</time>
      </trkpt>
      <trkpt lat="43.29593" lon="2.24021">
        <ele>326</ele>
        <time>2019-06-12T14:00:31.000Z</time>
      </trkpt>
      <trkpt lat="43.29565" lon="2.24011">
        <ele>326</ele>
        <time>2019-06-12T14:00:51.000Z</time>
      </trkpt>
      <trkpt lat="43.29539" lon="2.23998">
        <ele>326</ele>
        <time>2019-06-12T14:01:15.000Z</time>
      </trkpt>
      <trkpt lat="43.29518" lon="2.23976">
        <ele>325</ele>
        <time>2019-06-12T14:01:37.000Z</time>
      </trkpt>
      <trkpt lat="43.2949" lon="2.23965">
        <ele>325</ele>
        <time>2019-06-12T14:01:58.000Z</time>
      </trkpt>
      <trkpt lat="43.29465" lon="2.23951">
        <ele>325</ele>
        <time>2019-06-12T14:02:19.000Z</time>
      </trkpt>
      <trkpt lat="43.29438" lon="2.23958">
        <ele>325</ele>
        <time>2019-06-12T14:02:54.000Z</time>
      </trkpt>
      <trkpt lat="43.29435" lon="2.23996">
        <ele>325</ele>
        <time>2019-06-12T14:03:19.000Z</time>
      </trkpt>
      <trkpt lat="43.29451" lon="2.24027">
        <ele>325</ele>
        <time>2019-06-12T14:03:42.000Z</time>
      </trkpt>
      <trkpt lat="43.29469" lon="2.24056">
        <ele>325</ele>
        <time>2019-06-12T14:04:7.000Z</time>
      </trkpt>
      <trkpt lat="43.29492" lon="2.24077">
        <ele>325</ele>
        <time>2019-06-12T14:04:37.000Z</time>
      </trkpt>
      <trkpt lat="43.29517" lon="2.24094">
        <ele>324</ele>
        <time>2019-06-12T14:05:2.000Z</time>
      </trkpt>
      <trkpt lat="43.29541" lon="2.24112">
        <ele>324</ele>
        <time>2019-06-12T14:05:25.000Z</time>
      </trkpt>
      <trkpt lat="43.29564" lon="2.24132">
        <ele>324</ele>
        <time>2019-06-12T14:05:48.000Z</time>
      </trkpt>
      <trkpt lat="43.29586" lon="2.24153">
        <ele>324</ele>
        <time>2019-06-12T14:06:13.000Z</time>
      </trkpt>
      <trkpt lat="43.29607" lon="2.24178">
        <ele>324</ele>
        <time>2019-06-12T14:06:37.000Z</time>
      </trkpt>
      <trkpt lat="43.29627" lon="2.24203">
        <ele>324</ele>
        <time>2019-06-12T14:06:59.000Z</time>
      </trkpt>
      <trkpt lat="43.29645" lon="2.24231">
        <ele>324</ele>
        <time>2019-06-12T14:07:22.000Z</time>
      </trkpt>
      <trkpt lat="43.29667" lon="2.24254">
        <ele>324</ele>
        <time>2019-06-12T14:07:49.000Z</time>
      </trkpt>
      <trkpt lat="43.29691" lon="2.24272">
        <ele>324</ele>
        <time>2019-06-12T14:08:13.000Z</time>
      </trkpt>
      <trkpt lat="43.29713" lon="2.24296">
        <ele>324</ele>
        <time>2019-06-12T14:08:40.000Z</time>
      </trkpt>
      <trkpt lat="43.29735" lon="2.2432">
        <ele>324</ele>
        <time>2019-06-12T14:09:6.000Z</time>
      </trkpt>
      <trkpt lat="43.29754" lon="2.24347">
        <ele>324</ele>
        <time>2019-06-12T14:09:30.000Z</time>
      </trkpt>
      <trkpt lat="43.29777" lon="2.24368">
        <ele>323</ele>
        <time>2019-06-12T14:09:51.000Z</time>
      </trkpt>
      <trkpt lat="43.29801" lon="2.24385">
        <ele>323</ele>
        <time>2019-06-12T14:10:18.000Z</time>
      </trkpt>
      <trkpt lat="43.29825" lon="2.24402">
        <ele>322</ele>
        <time>2019-06-12T14:10:41.000Z</time>
      </trkpt>
      <trkpt lat="43.29848" lon="2.24423">
        <ele>322</ele>
        <time>2019-06-12T14:11:5.000Z</time>
      </trkpt>
      <trkpt lat="43.29873" lon="2.24438">
        <ele>321</ele>
        <time>2019-06-12T14:11:32.000Z</time>
      </trkpt>
      <trkpt lat="43.29891" lon="2.24466">
        <ele>321</ele>
        <time>2019-06-12T14:11:55.000Z</time>
      </trkpt>
      <trkpt lat="43.29911" lon="2.24492">
        <ele>320</ele>
        <time>2019-06-12T14:12:18.000Z</time>
      </trkpt>
      <trkpt lat="43.29928" lon="2.24523">
        <ele>320</ele>
        <time>2019-06-12T14:12:42.000Z</time>
      </trkpt>
      <trkpt lat="43.29947" lon="2.24549">
        <ele>320</ele>
        <time>2019-06-12T14:13:5.000Z</time>
      </trkpt>
      <trkpt lat="43.29965" lon="2.24577">
        <ele>320</ele>
        <time>2019-06-12T14:13:29.000Z</time>
      </trkpt>
      <trkpt lat="43.29985" lon="2.24602">
        <ele>320</ele>
        <time>2019-06-12T14:13:50.000Z</time>
      </trkpt>
      <trkpt lat="43.3" lon="2.24635">
        <ele>320</ele>
        <time>2019-06-12T14:14:13.000Z</time>
      </trkpt>
      <trkpt lat="43.30017" lon="2.24665">
        <ele>319</ele>
        <time>2019-06-12T14:14:35.000Z</time>
      </trkpt>
      <trkpt lat="43.30033" lon="2.24696">
        <ele>319</ele>
        <time>2019-06-12T14:14:57.000Z</time>
      </trkpt>
      <trkpt lat="43.30025" lon="2.24733">
        <ele>319</ele>
        <time>2019-06-12T14:15:25.000Z</time>
      </trkpt>
      <trkpt lat="43.30013" lon="2.24766">
        <ele>319</ele>
        <time>2019-06-12T14:15:45.000Z</time>
      </trkpt>
      <trkpt lat="43.30002" lon="2.248">
        <ele>318</ele>
        <time>2019-06-12T14:16:28.000Z</time>
      </trkpt>
      <trkpt lat="43.29983" lon="2.24828">
        <ele>316</ele>
        <time>2019-06-12T14:20:15.000Z</time>
      </trkpt>
      <trkpt lat="43.29963" lon="2.24853">
        <ele>315</ele>
        <time>2019-06-12T14:20:38.000Z</time>
      </trkpt>
      <trkpt lat="43.29944" lon="2.24879">
        <ele>315</ele>
        <time>2019-06-12T14:21:1.000Z</time>
      </trkpt>
      <trkpt lat="43.29926" lon="2.2491">
        <ele>315</ele>
        <time>2019-06-12T14:21:24.000Z</time>
      </trkpt>
      <trkpt lat="43.29906" lon="2.24936">
        <ele>315</ele>
        <time>2019-06-12T14:21:46.000Z</time>
      </trkpt>
      <trkpt lat="43.29887" lon="2.24963">
        <ele>315</ele>
        <time>2019-06-12T14:22:8.000Z</time>
      </trkpt>
      <trkpt lat="43.29869" lon="2.24991">
        <ele>316</ele>
        <time>2019-06-12T14:22:33.000Z</time>
      </trkpt>
      <trkpt lat="43.2985" lon="2.25018">
        <ele>316</ele>
        <time>2019-06-12T14:22:56.000Z</time>
      </trkpt>
      <trkpt lat="43.29829" lon="2.25044">
        <ele>316</ele>
        <time>2019-06-12T14:23:19.000Z</time>
      </trkpt>
      <trkpt lat="43.29807" lon="2.2507">
        <ele>316</ele>
        <time>2019-06-12T14:23:42.000Z</time>
      </trkpt>
      <trkpt lat="43.29784" lon="2.25091">
        <ele>316</ele>
        <time>2019-06-12T14:24:4.000Z</time>
      </trkpt>
      <trkpt lat="43.29762" lon="2.25113">
        <ele>316</ele>
        <time>2019-06-12T14:24:26.000Z</time>
      </trkpt>
      <trkpt lat="43.29742" lon="2.2514">
        <ele>316</ele>
        <time>2019-06-12T14:24:50.000Z</time>
      </trkpt>
      <trkpt lat="43.29722" lon="2.25165">
        <ele>316</ele>
        <time>2019-06-12T14:25:11.000Z</time>
      </trkpt>
      <trkpt lat="43.29701" lon="2.2519">
        <ele>316</ele>
        <time>2019-06-12T14:25:33.000Z</time>
      </trkpt>
      <trkpt lat="43.29684" lon="2.25221">
        <ele>316</ele>
        <time>2019-06-12T14:25:57.000Z</time>
      </trkpt>
      <trkpt lat="43.29677" lon="2.25257">
        <ele>316</ele>
        <time>2019-06-12T14:26:19.000Z</time>
      </trkpt>
      <trkpt lat="43.29662" lon="2.25289">
        <ele>316</ele>
        <time>2019-06-12T14:26:45.000Z</time>
      </trkpt>
      <trkpt lat="43.29647" lon="2.25322">
        <ele>316</ele>
        <time>2019-06-12T14:27:11.000Z</time>
      </trkpt>
      <trkpt lat="43.29634" lon="2.25357">
        <ele>316</ele>
        <time>2019-06-12T14:27:34.000Z</time>
      </trkpt>
      <trkpt lat="43.2962" lon="2.2539">
        <ele>316</ele>
        <time>2019-06-12T14:28:1.000Z</time>
      </trkpt>
      <trkpt lat="43.29605" lon="2.25423">
        <ele>316</ele>
        <time>2019-06-12T14:28:25.000Z</time>
      </trkpt>
      <trkpt lat="43.29591" lon="2.25454">
        <ele>315</ele>
        <time>2019-06-12T14:28:48.000Z</time>
      </trkpt>
      <trkpt lat="43.29574" lon="2.25485">
        <ele>315</ele>
        <time>2019-06-12T14:29:12.000Z</time>
      </trkpt>
      <trkpt lat="43.29557" lon="2.25515">
        <ele>315</ele>
        <time>2019-06-12T14:29:34.000Z</time>
      </trkpt>
      <trkpt lat="43.2954" lon="2.25545">
        <ele>315</ele>
        <time>2019-06-12T14:29:56.000Z</time>
      </trkpt>
      <trkpt lat="43.29522" lon="2.25574">
        <ele>315</ele>
        <time>2019-06-12T14:30:19.000Z</time>
      </trkpt>
      <trkpt lat="43.29509" lon="2.25608">
        <ele>315</ele>
        <time>2019-06-12T14:30:43.000Z</time>
      </trkpt>
      <trkpt lat="43.29495" lon="2.2564">
        <ele>315</ele>
        <time>2019-06-12T14:31:6.000Z</time>
      </trkpt>
      <trkpt lat="43.29483" lon="2.25673">
        <ele>314</ele>
        <time>2019-06-12T14:31:28.000Z</time>
      </trkpt>
      <trkpt lat="43.29471" lon="2.25707">
        <ele>314</ele>
        <time>2019-06-12T14:31:51.000Z</time>
      </trkpt>
      <trkpt lat="43.29454" lon="2.25736">
        <ele>314</ele>
        <time>2019-06-12T14:32:13.000Z</time>
      </trkpt>
      <trkpt lat="43.29435" lon="2.25764">
        <ele>314</ele>
        <time>2019-06-12T14:32:35.000Z</time>
      </trkpt>
      <trkpt lat="43.29422" lon="2.25797">
        <ele>313</ele>
        <time>2019-06-12T14:32:59.000Z</time>
      </trkpt>
      <trkpt lat="43.29403" lon="2.25826">
        <ele>313</ele>
        <time>2019-06-12T14:33:21.000Z</time>
      </trkpt>
      <trkpt lat="43.29382" lon="2.2585">
        <ele>313</ele>
        <time>2019-06-12T14:33:49.000Z</time>
      </trkpt>
      <trkpt lat="43.29364" lon="2.25879">
        <ele>312</ele>
        <time>2019-06-12T14:34:8.000Z</time>
      </trkpt>
      <trkpt lat="43.29344" lon="2.25907">
        <ele>312</ele>
        <time>2019-06-12T14:34:33.000Z</time>
      </trkpt>
      <trkpt lat="43.29321" lon="2.25927">
        <ele>312</ele>
        <time>2019-06-12T14:34:52.000Z</time>
      </trkpt>
      <trkpt lat="43.29298" lon="2.25952">
        <ele>312</ele>
        <time>2019-06-12T14:35:14.000Z</time>
      </trkpt>
      <trkpt lat="43.29275" lon="2.25974">
        <ele>312</ele>
        <time>2019-06-12T14:35:35.000Z</time>
      </trkpt>
      <trkpt lat="43.29252" lon="2.25994">
        <ele>311</ele>
        <time>2019-06-12T14:35:56.000Z</time>
      </trkpt>
      <trkpt lat="43.29229" lon="2.26015">
        <ele>311</ele>
        <time>2019-06-12T14:36:19.000Z</time>
      </trkpt>
      <trkpt lat="43.29206" lon="2.26038">
        <ele>311</ele>
        <time>2019-06-12T14:36:42.000Z</time>
      </trkpt>
      <trkpt lat="43.29182" lon="2.26058">
        <ele>310</ele>
        <time>2019-06-12T14:37:1.000Z</time>
      </trkpt>
      <trkpt lat="43.29158" lon="2.26075">
        <ele>310</ele>
        <time>2019-06-12T14:37:23.000Z</time>
      </trkpt>
      <trkpt lat="43.29135" lon="2.26096">
        <ele>310</ele>
        <time>2019-06-12T14:37:41.000Z</time>
      </trkpt>
      <trkpt lat="43.29113" lon="2.26117">
        <ele>309</ele>
        <time>2019-06-12T14:38:3.000Z</time>
      </trkpt>
      <trkpt lat="43.29088" lon="2.26136">
        <ele>309</ele>
        <time>2019-06-12T14:38:26.000Z</time>
      </trkpt>
      <trkpt lat="43.29064" lon="2.26152">
        <ele>308</ele>
        <time>2019-06-12T14:38:52.000Z</time>
      </trkpt>
      <trkpt lat="43.29041" lon="2.26175">
        <ele>308</ele>
        <time>2019-06-12T14:39:14.000Z</time>
      </trkpt>
      <trkpt lat="43.29019" lon="2.26198">
        <ele>307</ele>
        <time>2019-06-12T14:39:37.000Z</time>
      </trkpt>
      <trkpt lat="43.28995" lon="2.26218">
        <ele>307</ele>
        <time>2019-06-12T14:40:0.000Z</time>
      </trkpt>
      <trkpt lat="43.28972" lon="2.26238">
        <ele>306</ele>
        <time>2019-06-12T14:40:21.000Z</time>
      </trkpt>
      <trkpt lat="43.28947" lon="2.26255">
        <ele>306</ele>
        <time>2019-06-12T14:40:42.000Z</time>
      </trkpt>
      <trkpt lat="43.28922" lon="2.26272">
        <ele>306</ele>
        <time>2019-06-12T14:41:3.000Z</time>
      </trkpt>
      <trkpt lat="43.28897" lon="2.26285">
        <ele>305</ele>
        <time>2019-06-12T14:41:31.000Z</time>
      </trkpt>
      <trkpt lat="43.28871" lon="2.26298">
        <ele>304</ele>
        <time>2019-06-12T14:41:54.000Z</time>
      </trkpt>
      <trkpt lat="43.28844" lon="2.26311">
        <ele>304</ele>
        <time>2019-06-12T14:42:18.000Z</time>
      </trkpt>
      <trkpt lat="43.28819" lon="2.26328">
        <ele>304</ele>
        <time>2019-06-12T14:42:39.000Z</time>
      </trkpt>
      <trkpt lat="43.28792" lon="2.26336">
        <ele>303</ele>
        <time>2019-06-12T14:43:10.000Z</time>
      </trkpt>
      <trkpt lat="43.28765" lon="2.26329">
        <ele>303</ele>
        <time>2019-06-12T14:43:32.000Z</time>
      </trkpt>
      <trkpt lat="43.28744" lon="2.26303">
        <ele>299</ele>
        <time>2019-06-12T14:47:35.000Z</time>
      </trkpt>
      <trkpt lat="43.28718" lon="2.26289">
        <ele>297</ele>
        <time>2019-06-12T14:48:4.000Z</time>
      </trkpt>
      <trkpt lat="43.28691" lon="2.26297">
        <ele>290</ele>
        <time>2019-06-12T14:48:42.000Z</time>
      </trkpt>
      <trkpt lat="43.28664" lon="2.26291">
        <ele>283</ele>
        <time>2019-06-12T14:49:14.000Z</time>
      </trkpt>
      <trkpt lat="43.28648" lon="2.26322">
        <ele>278</ele>
        <time>2019-06-12T14:49:39.000Z</time>
      </trkpt>
      <trkpt lat="43.2864" lon="2.26358">
        <ele>275</ele>
        <time>2019-06-12T14:49:57.000Z</time>
      </trkpt>
      <trkpt lat="43.2863" lon="2.26393">
        <ele>272</ele>
        <time>2019-06-12T14:50:20.000Z</time>
      </trkpt>
      <trkpt lat="43.2862" lon="2.26427">
        <ele>268</ele>
        <time>2019-06-12T14:50:48.000Z</time>
      </trkpt>
      <trkpt lat="43.28611" lon="2.26463">
        <ele>265</ele>
        <time>2019-06-12T14:51:14.000Z</time>
      </trkpt>
      <trkpt lat="43.28607" lon="2.26499">
        <ele>263</ele>
        <time>2019-06-12T14:51:34.000Z</time>
      </trkpt>
      <trkpt lat="43.28604" lon="2.26537">
        <ele>262</ele>
        <time>2019-06-12T14:51:55.000Z</time>
      </trkpt>
      <trkpt lat="43.28598" lon="2.26574">
        <ele>261</ele>
        <time>2019-06-12T14:52:17.000Z</time>
      </trkpt>
      <trkpt lat="43.28584" lon="2.26607">
        <ele>259</ele>
        <time>2019-06-12T14:52:38.000Z</time>
      </trkpt>
      <trkpt lat="43.28563" lon="2.2663">
        <ele>258</ele>
        <time>2019-06-12T14:53:2.000Z</time>
      </trkpt>
      <trkpt lat="43.2854" lon="2.26654">
        <ele>257</ele>
        <time>2019-06-12T14:53:20.000Z</time>
      </trkpt>
      <trkpt lat="43.28521" lon="2.2668">
        <ele>255</ele>
        <time>2019-06-12T14:53:45.000Z</time>
      </trkpt>
      <trkpt lat="43.28498" lon="2.26704">
        <ele>254</ele>
        <time>2019-06-12T14:54:8.000Z</time>
      </trkpt>
      <trkpt lat="43.28478" lon="2.26729">
        <ele>252</ele>
        <time>2019-06-12T14:54:30.000Z</time>
      </trkpt>
      <trkpt lat="43.28453" lon="2.26744">
        <ele>251</ele>
        <time>2019-06-12T14:54:52.000Z</time>
      </trkpt>
      <trkpt lat="43.28428" lon="2.26758">
        <ele>236</ele>
        <time>2019-06-12T15:01:40.000Z</time>
      </trkpt>
      <trkpt lat="43.28408" lon="2.26784">
        <ele>235</ele>
        <time>2019-06-12T15:02:4.000Z</time>
      </trkpt>
      <trkpt lat="43.28387" lon="2.26809">
        <ele>234</ele>
        <time>2019-06-12T15:02:27.000Z</time>
      </trkpt>
      <trkpt lat="43.28359" lon="2.26818">
        <ele>233</ele>
        <time>2019-06-12T15:02:50.000Z</time>
      </trkpt>
      <trkpt lat="43.28331" lon="2.26824">
        <ele>232</ele>
        <time>2019-06-12T15:03:15.000Z</time>
      </trkpt>
      <trkpt lat="43.28306" lon="2.26838">
        <ele>231</ele>
        <time>2019-06-12T15:03:39.000Z</time>
      </trkpt>
      <trkpt lat="43.28278" lon="2.26845">
        <ele>231</ele>
        <time>2019-06-12T15:04:0.000Z</time>
      </trkpt>
      <trkpt lat="43.28251" lon="2.26853">
        <ele>231</ele>
        <time>2019-06-12T15:04:21.000Z</time>
      </trkpt>
      <trkpt lat="43.28224" lon="2.26852">
        <ele>230</ele>
        <time>2019-06-12T15:04:41.000Z</time>
      </trkpt>
      <trkpt lat="43.28196" lon="2.26852">
        <ele>230</ele>
        <time>2019-06-12T15:05:4.000Z</time>
      </trkpt>
      <trkpt lat="43.28168" lon="2.26855">
        <ele>229</ele>
        <time>2019-06-12T15:05:25.000Z</time>
      </trkpt>
      <trkpt lat="43.28141" lon="2.26862">
        <ele>229</ele>
        <time>2019-06-12T15:05:46.000Z</time>
      </trkpt>
      <trkpt lat="43.28113" lon="2.26865">
        <ele>228</ele>
        <time>2019-06-12T15:06:8.000Z</time>
      </trkpt>
      <trkpt lat="43.28086" lon="2.26874">
        <ele>227</ele>
        <time>2019-06-12T15:06:31.000Z</time>
      </trkpt>
      <trkpt lat="43.2806" lon="2.26889">
        <ele>227</ele>
        <time>2019-06-12T15:06:49.000Z</time>
      </trkpt>
      <trkpt lat="43.28035" lon="2.26903">
        <ele>226</ele>
        <time>2019-06-12T15:07:10.000Z</time>
      </trkpt>
      <trkpt lat="43.28009" lon="2.26915">
        <ele>226</ele>
        <time>2019-06-12T15:07:31.000Z</time>
      </trkpt>
      <trkpt lat="43.27981" lon="2.26915">
        <ele>225</ele>
        <time>2019-06-12T15:07:55.000Z</time>
      </trkpt>
      <trkpt lat="43.27973" lon="2.26879">
        <ele>225</ele>
        <time>2019-06-12T15:08:14.000Z</time>
      </trkpt>
      <trkpt lat="43.27966" lon="2.26841">
        <ele>224</ele>
        <time>2019-06-12T15:08:33.000Z</time>
      </trkpt>
      <trkpt lat="43.27966" lon="2.26803">
        <ele>224</ele>
        <time>2019-06-12T15:08:53.000Z</time>
      </trkpt>
      <trkpt lat="43.2795" lon="2.26772">
        <ele>224</ele>
        <time>2019-06-12T15:09:15.000Z</time>
      </trkpt>
      <trkpt lat="43.2793" lon="2.26747">
        <ele>223</ele>
        <time>2019-06-12T15:09:36.000Z</time>
      </trkpt>
      <trkpt lat="43.27911" lon="2.26719">
        <ele>223</ele>
        <time>2019-06-12T15:09:56.000Z</time>
      </trkpt>
      <trkpt lat="43.27889" lon="2.26696">
        <ele>221</ele>
        <time>2019-06-12T15:15:50.000Z</time>
      </trkpt>
      <trkpt lat="43.27871" lon="2.26667">
        <ele>221</ele>
        <time>2019-06-12T15:16:15.000Z</time>
      </trkpt>
      <trkpt lat="43.27849" lon="2.26644">
        <ele>220</ele>
        <time>2019-06-12T15:16:41.000Z</time>
      </trkpt>
      <trkpt lat="43.27839" lon="2.26609">
        <ele>220</ele>
        <time>2019-06-12T15:17:0.000Z</time>
      </trkpt>
      <trkpt lat="43.2783" lon="2.26575">
        <ele>220</ele>
        <time>2019-06-12T15:17:22.000Z</time>
      </trkpt>
      <trkpt lat="43.27817" lon="2.26542">
        <ele>219</ele>
        <time>2019-06-12T15:17:42.000Z</time>
      </trkpt>
      <trkpt lat="43.27799" lon="2.26513">
        <ele>219</ele>
        <time>2019-06-12T15:18:4.000Z</time>
      </trkpt>
      <trkpt lat="43.2779" lon="2.26477">
        <ele>219</ele>
        <time>2019-06-12T15:18:25.000Z</time>
      </trkpt>
      <trkpt lat="43.27778" lon="2.26442">
        <ele>219</ele>
        <time>2019-06-12T15:18:49.000Z</time>
      </trkpt>
      <trkpt lat="43.27766" lon="2.26407">
        <ele>218</ele>
        <time>2019-06-12T15:19:11.000Z</time>
      </trkpt>
      <trkpt lat="43.27751" lon="2.26376">
        <ele>218</ele>
        <time>2019-06-12T15:19:34.000Z</time>
      </trkpt>
      <trkpt lat="43.27738" lon="2.26343">
        <ele>218</ele>
        <time>2019-06-12T15:19:55.000Z</time>
      </trkpt>
      <trkpt lat="43.27729" lon="2.26308">
        <ele>218</ele>
        <time>2019-06-12T15:20:14.000Z</time>
      </trkpt>
      <trkpt lat="43.27719" lon="2.26272">
        <ele>218</ele>
        <time>2019-06-12T15:20:35.000Z</time>
      </trkpt>
      <trkpt lat="43.27699" lon="2.26247">
        <ele>217</ele>
        <time>2019-06-12T15:20:59.000Z</time>
      </trkpt>
      <trkpt lat="43.27673" lon="2.26257">
        <ele>217</ele>
        <time>2019-06-12T15:21:20.000Z</time>
      </trkpt>
      <trkpt lat="43.27646" lon="2.26269">
        <ele>217</ele>
        <time>2019-06-12T15:21:43.000Z</time>
      </trkpt>
      <trkpt lat="43.27625" lon="2.26292">
        <ele>217</ele>
        <time>2019-06-12T15:22:6.000Z</time>
      </trkpt>
      <trkpt lat="43.27607" lon="2.2632">
        <ele>216</ele>
        <time>2019-06-12T15:22:25.000Z</time>
      </trkpt>
      <trkpt lat="43.27586" lon="2.26343">
        <ele>216</ele>
        <time>2019-06-12T15:22:47.000Z</time>
      </trkpt>
      <trkpt lat="43.27564" lon="2.26366">
        <ele>216</ele>
        <time>2019-06-12T15:23:9.000Z</time>
      </trkpt>
      <trkpt lat="43.2754" lon="2.26385">
        <ele>216</ele>
        <time>2019-06-12T15:23:32.000Z</time>
      </trkpt>
      <trkpt lat="43.27518" lon="2.26364">
        <ele>216</ele>
        <time>2019-06-12T15:23:51.000Z</time>
      </trkpt>
      <trkpt lat="43.27499" lon="2.26336">
        <ele>215</ele>
        <time>2019-06-12T15:24:18.000Z</time>
      </trkpt>
      <trkpt lat="43.2748" lon="2.26308">
        <ele>215</ele>
        <time>2019-06-12T15:24:44.000Z</time>
      </trkpt>
      <trkpt lat="43.27455" lon="2.26294">
        <ele>214</ele>
        <time>2019-06-12T15:25:9.000Z</time>
      </trkpt>
      <trkpt lat="43.27427" lon="2.26293">
        <ele>214</ele>
        <time>2019-06-12T15:25:30.000Z</time>
      </trkpt>
      <trkpt lat="43.27403" lon="2.26276">
        <ele>213</ele>
        <time>2019-06-12T15:25:51.000Z</time>
      </trkpt>
      <trkpt lat="43.27376" lon="2.26262">
        <ele>213</ele>
        <time>2019-06-12T15:26:11.000Z</time>
      </trkpt>
      <trkpt lat="43.27351" lon="2.26248">
        <ele>213</ele>
        <time>2019-06-12T15:26:34.000Z</time>
      </trkpt>
      <trkpt lat="43.27326" lon="2.26231">
        <ele>212</ele>
        <time>2019-06-12T15:26:53.000Z</time>
      </trkpt>
      <trkpt lat="43.27301" lon="2.26216">
        <ele>212</ele>
        <time>2019-06-12T15:27:13.000Z</time>
      </trkpt>
      <trkpt lat="43.27275" lon="2.26203">
        <ele>212</ele>
        <time>2019-06-12T15:27:30.000Z</time>
      </trkpt>
      <trkpt lat="43.27249" lon="2.26186">
        <ele>211</ele>
        <time>2019-06-12T15:27:47.000Z</time>
      </trkpt>
      <trkpt lat="43.27223" lon="2.26174">
        <ele>210</ele>
        <time>2019-06-12T15:28:15.000Z</time>
      </trkpt>
      <trkpt lat="43.27197" lon="2.26159">
        <ele>209</ele>
        <time>2019-06-12T15:28:36.000Z</time>
      </trkpt>
      <trkpt lat="43.27171" lon="2.26147">
        <ele>208</ele>
        <time>2019-06-12T15:28:57.000Z</time>
      </trkpt>
      <trkpt lat="43.27145" lon="2.26139">
        <ele>207</ele>
        <time>2019-06-12T15:29:17.000Z</time>
      </trkpt>
      <trkpt lat="43.27118" lon="2.26126">
        <ele>207</ele>
        <time>2019-06-12T15:29:39.000Z</time>
      </trkpt>
      <trkpt lat="43.27093" lon="2.26114">
        <ele>206</ele>
        <time>2019-06-12T15:29:58.000Z</time>
      </trkpt>
      <trkpt lat="43.27067" lon="2.26102">
        <ele>205</ele>
        <time>2019-06-12T15:30:24.000Z</time>
      </trkpt>
      <trkpt lat="43.27039" lon="2.2609">
        <ele>204</ele>
        <time>2019-06-12T15:30:44.000Z</time>
      </trkpt>
      <trkpt lat="43.27065" lon="2.26079">
        <ele>202</ele>
        <time>2019-06-12T15:32:4.000Z</time>
      </trkpt>
      <trkpt lat="43.2709" lon="2.26093">
        <ele>201</ele>
        <time>2019-06-12T15:32:33.000Z</time>
      </trkpt>
      <trkpt lat="43.27116" lon="2.26105">
        <ele>201</ele>
        <time>2019-06-12T15:33:0.000Z</time>
      </trkpt>
      <trkpt lat="43.27142" lon="2.26114">
        <ele>201</ele>
        <time>2019-06-12T15:33:25.000Z</time>
      </trkpt>
      <trkpt lat="43.27169" lon="2.26125">
        <ele>201</ele>
        <time>2019-06-12T15:33:48.000Z</time>
      </trkpt>
      <trkpt lat="43.27196" lon="2.26136">
        <ele>200</ele>
        <time>2019-06-12T15:34:8.000Z</time>
      </trkpt>
      <trkpt lat="43.27221" lon="2.26148">
        <ele>200</ele>
        <time>2019-06-12T15:34:30.000Z</time>
      </trkpt>
      <trkpt lat="43.27247" lon="2.26163">
        <ele>200</ele>
        <time>2019-06-12T15:34:51.000Z</time>
      </trkpt>
      <trkpt lat="43.27272" lon="2.26177">
        <ele>199</ele>
        <time>2019-06-12T15:35:13.000Z</time>
      </trkpt>
      <trkpt lat="43.27298" lon="2.26192">
        <ele>199</ele>
        <time>2019-06-12T15:35:34.000Z</time>
      </trkpt>
      <trkpt lat="43.27322" lon="2.26212">
        <ele>199</ele>
        <time>2019-06-12T15:35:55.000Z</time>
      </trkpt>
      <trkpt lat="43.27314" lon="2.26248">
        <ele>198</ele>
        <time>2019-06-12T15:36:23.000Z</time>
      </trkpt>
      <trkpt lat="43.27293" lon="2.26272">
        <ele>198</ele>
        <time>2019-06-12T15:36:42.000Z</time>
      </trkpt>
      <trkpt lat="43.27275" lon="2.26302">
        <ele>198</ele>
        <time>2019-06-12T15:37:6.000Z</time>
      </trkpt>
      <trkpt lat="43.27258" lon="2.26333">
        <ele>198</ele>
        <time>2019-06-12T15:37:29.000Z</time>
      </trkpt>
      <trkpt lat="43.27243" lon="2.26364">
        <ele>197</ele>
        <time>2019-06-12T15:37:49.000Z</time>
      </trkpt>
      <trkpt lat="43.27225" lon="2.26394">
        <ele>197</ele>
        <time>2019-06-12T15:38:10.000Z</time>
      </trkpt>
      <trkpt lat="43.27209" lon="2.26425">
        <ele>196</ele>
        <time>2019-06-12T15:38:33.000Z</time>
      </trkpt>
      <trkpt lat="43.27189" lon="2.26452">
        <ele>196</ele>
        <time>2019-06-12T15:38:55.000Z</time>
      </trkpt>
      <trkpt lat="43.27171" lon="2.26481">
        <ele>195</ele>
        <time>2019-06-12T15:39:16.000Z</time>
      </trkpt>
      <trkpt lat="43.27154" lon="2.26511">
        <ele>195</ele>
        <time>2019-06-12T15:39:40.000Z</time>
      </trkpt>
      <trkpt lat="43.27138" lon="2.26542">
        <ele>194</ele>
        <time>2019-06-12T15:40:1.000Z</time>
      </trkpt>
      <trkpt lat="43.27112" lon="2.26555">
        <ele>194</ele>
        <time>2019-06-12T15:40:23.000Z</time>
      </trkpt>
      <trkpt lat="43.27085" lon="2.26557">
        <ele>194</ele>
        <time>2019-06-12T15:40:44.000Z</time>
      </trkpt>
      <trkpt lat="43.27057" lon="2.26554">
        <ele>193</ele>
        <time>2019-06-12T15:41:4.000Z</time>
      </trkpt>
      <trkpt lat="43.27085" lon="2.26552">
        <ele>192</ele>
        <time>2019-06-12T15:42:13.000Z</time>
      </trkpt>
      <trkpt lat="43.27112" lon="2.26544">
        <ele>192</ele>
        <time>2019-06-12T15:42:42.000Z</time>
      </trkpt>
      <trkpt lat="43.27102" lon="2.26579">
        <ele>192</ele>
        <time>2019-06-12T15:44:0.000Z</time>
      </trkpt>
      <trkpt lat="43.27076" lon="2.2659">
        <ele>192</ele>
        <time>2019-06-12T15:44:17.000Z</time>
      </trkpt>
      <trkpt lat="43.27049" lon="2.26597">
        <ele>192</ele>
        <time>2019-06-12T15:44:37.000Z</time>
      </trkpt>
      <trkpt lat="43.27022" lon="2.26596">
        <ele>191</ele>
        <time>2019-06-12T15:44:59.000Z</time>
      </trkpt>
      <trkpt lat="43.27004" lon="2.26624">
        <ele>191</ele>
        <time>2019-06-12T15:45:40.000Z</time>
      </trkpt>
      <trkpt lat="43.26998" lon="2.2666">
        <ele>190</ele>
        <time>2019-06-12T15:46:3.000Z</time>
      </trkpt>
      <trkpt lat="43.26979" lon="2.2669">
        <ele>190</ele>
        <time>2019-06-12T15:46:23.000Z</time>
      </trkpt>
      <trkpt lat="43.26961" lon="2.2672">
        <ele>190</ele>
        <time>2019-06-12T15:46:43.000Z</time>
      </trkpt>
      <trkpt lat="43.26941" lon="2.26747">
        <ele>190</ele>
        <time>2019-06-12T15:47:1.000Z</time>
      </trkpt>
      <trkpt lat="43.26926" lon="2.26778">
        <ele>189</ele>
        <time>2019-06-12T15:47:23.000Z</time>
      </trkpt>
      <trkpt lat="43.26915" lon="2.26813">
        <ele>189</ele>
        <time>2019-06-12T15:47:42.000Z</time>
      </trkpt>
      <trkpt lat="43.26902" lon="2.26846">
        <ele>189</ele>
        <time>2019-06-12T15:48:2.000Z</time>
      </trkpt>
      <trkpt lat="43.26892" lon="2.26881">
        <ele>188</ele>
        <time>2019-06-12T15:48:22.000Z</time>
      </trkpt>
      <trkpt lat="43.26884" lon="2.26918">
        <ele>188</ele>
        <time>2019-06-12T15:48:45.000Z</time>
      </trkpt>
      <trkpt lat="43.26877" lon="2.26956">
        <ele>188</ele>
        <time>2019-06-12T15:49:4.000Z</time>
      </trkpt>
      <trkpt lat="43.2687" lon="2.26993">
        <ele>188</ele>
        <time>2019-06-12T15:49:23.000Z</time>
      </trkpt>
      <trkpt lat="43.26859" lon="2.27028">
        <ele>187</ele>
        <time>2019-06-12T15:49:45.000Z</time>
      </trkpt>
      <trkpt lat="43.26849" lon="2.27062">
        <ele>187</ele>
        <time>2019-06-12T15:50:3.000Z</time>
      </trkpt>
      <trkpt lat="43.26834" lon="2.27095">
        <ele>187</ele>
        <time>2019-06-12T15:50:26.000Z</time>
      </trkpt>
      <trkpt lat="43.26821" lon="2.27128">
        <ele>187</ele>
        <time>2019-06-12T15:50:47.000Z</time>
      </trkpt>
      <trkpt lat="43.26805" lon="2.27157">
        <ele>186</ele>
        <time>2019-06-12T15:51:5.000Z</time>
      </trkpt>
      <trkpt lat="43.26787" lon="2.27187">
        <ele>186</ele>
        <time>2019-06-12T15:51:26.000Z</time>
      </trkpt>
      <trkpt lat="43.26768" lon="2.27216">
        <ele>186</ele>
        <time>2019-06-12T15:51:46.000Z</time>
      </trkpt>
      <trkpt lat="43.26748" lon="2.27242">
        <ele>186</ele>
        <time>2019-06-12T15:52:5.000Z</time>
      </trkpt>
      <trkpt lat="43.26728" lon="2.2727">
        <ele>185</ele>
        <time>2019-06-12T15:52:25.000Z</time>
      </trkpt>
      <trkpt lat="43.26708" lon="2.27295">
        <ele>185</ele>
        <time>2019-06-12T15:52:42.000Z</time>
      </trkpt>
      <trkpt lat="43.26688" lon="2.2732">
        <ele>185</ele>
        <time>2019-06-12T15:53:6.000Z</time>
      </trkpt>
      <trkpt lat="43.26661" lon="2.27332">
        <ele>184</ele>
        <time>2019-06-12T15:53:26.000Z</time>
      </trkpt>
      <trkpt lat="43.26634" lon="2.27327">
        <ele>184</ele>
        <time>2019-06-12T15:53:42.000Z</time>
      </trkpt>
      <trkpt lat="43.26607" lon="2.2732">
        <ele>183</ele>
        <time>2019-06-12T15:54:3.000Z</time>
      </trkpt>
      <trkpt lat="43.26579" lon="2.27322">
        <ele>182</ele>
        <time>2019-06-12T15:54:27.000Z</time>
      </trkpt>
      <trkpt lat="43.26552" lon="2.27329">
        <ele>182</ele>
        <time>2019-06-12T15:54:47.000Z</time>
      </trkpt>
      <trkpt lat="43.26525" lon="2.27337">
        <ele>181</ele>
        <time>2019-06-12T15:55:11.000Z</time>
      </trkpt>
      <trkpt lat="43.26498" lon="2.27344">
        <ele>181</ele>
        <time>2019-06-12T15:55:29.000Z</time>
      </trkpt>
      <trkpt lat="43.26471" lon="2.27348">
        <ele>181</ele>
        <time>2019-06-12T15:55:44.000Z</time>
      </trkpt>
      <trkpt lat="43.26461" lon="2.27384">
        <ele>180</ele>
        <time>2019-06-12T15:56:8.000Z</time>
      </trkpt>
      <trkpt lat="43.26449" lon="2.27418">
        <ele>180</ele>
        <time>2019-06-12T15:56:29.000Z</time>
      </trkpt>
      <trkpt lat="43.2644" lon="2.27454">
        <ele>180</ele>
        <time>2019-06-12T15:56:54.000Z</time>
      </trkpt>
      <trkpt lat="43.26433" lon="2.27491">
        <ele>179</ele>
        <time>2019-06-12T15:57:15.000Z</time>
      </trkpt>
      <trkpt lat="43.26423" lon="2.27526">
        <ele>179</ele>
        <time>2019-06-12T15:57:37.000Z</time>
      </trkpt>
      <trkpt lat="43.26424" lon="2.27564">
        <ele>178</ele>
        <time>2019-06-12T15:59:41.000Z</time>
      </trkpt>
      <trkpt lat="43.26443" lon="2.27591">
        <ele>177</ele>
        <time>2019-06-12T16:00:3.000Z</time>
      </trkpt>
      <trkpt lat="43.26465" lon="2.27615">
        <ele>177</ele>
        <time>2019-06-12T16:00:26.000Z</time>
      </trkpt>
      <trkpt lat="43.26484" lon="2.27642">
        <ele>176</ele>
        <time>2019-06-12T16:00:47.000Z</time>
      </trkpt>
      <trkpt lat="43.26502" lon="2.27669">
        <ele>176</ele>
        <time>2019-06-12T16:01:3.000Z</time>
      </trkpt>
      <trkpt lat="43.26523" lon="2.27695">
        <ele>176</ele>
        <time>2019-06-12T16:01:20.000Z</time>
      </trkpt>
      <trkpt lat="43.2654" lon="2.27726">
        <ele>176</ele>
        <time>2019-06-12T16:01:36.000Z</time>
      </trkpt>
      <trkpt lat="43.26549" lon="2.27762">
        <ele>176</ele>
        <time>2019-06-12T16:01:55.000Z</time>
      </trkpt>
      <trkpt lat="43.26556" lon="2.27799">
        <ele>176</ele>
        <time>2019-06-12T16:02:14.000Z</time>
      </trkpt>
      <trkpt lat="43.26561" lon="2.27836">
        <ele>176</ele>
        <time>2019-06-12T16:02:30.000Z</time>
      </trkpt>
      <trkpt lat="43.2657" lon="2.27872">
        <ele>176</ele>
        <time>2019-06-12T16:02:50.000Z</time>
      </trkpt>
      <trkpt lat="43.26576" lon="2.27908">
        <ele>176</ele>
        <time>2019-06-12T16:03:8.000Z</time>
      </trkpt>
      <trkpt lat="43.26588" lon="2.27942">
        <ele>176</ele>
        <time>2019-06-12T16:03:26.000Z</time>
      </trkpt>
      <trkpt lat="43.26601" lon="2.27976">
        <ele>176</ele>
        <time>2019-06-12T16:03:44.000Z</time>
      </trkpt>
      <trkpt lat="43.26601" lon="2.28014">
        <ele>176</ele>
        <time>2019-06-12T16:04:3.000Z</time>
      </trkpt>
      <trkpt lat="43.26597" lon="2.28053">
        <ele>176</ele>
        <time>2019-06-12T16:04:20.000Z</time>
      </trkpt>
      <trkpt lat="43.26591" lon="2.28089">
        <ele>176</ele>
        <time>2019-06-12T16:04:38.000Z</time>
      </trkpt>
      <trkpt lat="43.26591" lon="2.28127">
        <ele>175</ele>
        <time>2019-06-12T16:04:57.000Z</time>
      </trkpt>
      <trkpt lat="43.26589" lon="2.28164">
        <ele>175</ele>
        <time>2019-06-12T16:05:19.000Z</time>
      </trkpt>
      <trkpt lat="43.26594" lon="2.28201">
        <ele>175</ele>
        <time>2019-06-12T16:05:40.000Z</time>
      </trkpt>
    </trkseg>
  </trk>
</gpx>